createdAt,value
2019-05-29T05:45:55.794Z,15.30
2019-05-29T05:46:55.783Z,15.42
2019-05-29T05:47:57.701Z,15.56
2019-05-29T05:48:55.753Z,15.63
2019-05-29T05:49:55.742Z,15.75
2019-05-29T05:50:55.731Z,15.82
2019-05-29T05:51:55.726Z,15.99
2019-05-29T05:52:55.706Z,16.16
2019-05-29T05:53:55.707Z,16.23
2019-05-29T05:54:55.694Z,16.33
2019-05-29T05:55:55.676Z,16.35
2019-05-29T05:56:55.677Z,16.35
2019-05-29T05:57:55.662Z,16.44
2019-05-29T05:58:55.643Z,16.56
2019-05-29T05:59:55.648Z,16.59
2019-05-29T06:00:55.619Z,16.44
2019-05-29T06:01:55.657Z,16.67
2019-05-29T06:02:55.602Z,16.86
2019-05-29T06:03:55.589Z,16.96
2019-05-29T06:04:55.579Z,17.11
2019-05-29T06:05:55.562Z,17.36
2019-05-29T06:06:55.563Z,17.40
2019-05-29T06:07:55.557Z,17.33
2019-05-29T06:08:55.545Z,17.44
2019-05-29T06:09:55.522Z,17.46
2019-05-29T06:10:55.544Z,17.69
2019-05-29T06:11:55.521Z,17.71
2019-05-29T06:12:55.490Z,17.59
2019-05-29T06:13:55.476Z,17.85
2019-05-29T06:14:55.463Z,18.03
2019-05-29T06:15:55.455Z,17.95
2019-05-29T06:16:55.444Z,18.07
2019-05-29T06:18:16.941Z,18.09
2019-05-29T06:18:56.430Z,18.17
2019-05-29T06:19:55.412Z,18.12
2019-05-29T06:20:55.396Z,18.06
2019-05-29T06:21:55.386Z,18.06
2019-05-29T06:22:55.397Z,18.03
2019-05-29T06:23:55.410Z,18.22
2019-05-29T06:24:55.364Z,18.22
2019-05-29T06:25:55.339Z,18.36
2019-05-29T06:26:55.342Z,18.31
2019-05-29T06:27:55.331Z,18.52
2019-05-29T06:28:55.306Z,18.50
2019-05-29T06:29:55.308Z,18.50
2019-05-29T06:30:55.284Z,18.57
2019-05-29T06:31:55.274Z,18.80
2019-05-29T06:32:55.273Z,18.84
2019-05-29T06:33:55.272Z,19.11
2019-05-29T06:34:55.242Z,19.29
2019-05-29T06:35:55.230Z,19.39
2019-05-29T06:36:55.259Z,19.51
2019-05-29T06:37:55.218Z,19.63
2019-05-29T06:38:55.200Z,19.57
2019-05-29T06:39:55.223Z,19.69
2019-05-29T06:40:55.170Z,19.75
2019-05-29T06:41:55.164Z,19.86
2019-05-29T06:42:55.172Z,19.84
2019-05-29T06:43:55.137Z,19.88
2019-05-29T06:44:55.130Z,19.70
2019-05-29T06:45:55.122Z,19.68
2019-05-29T06:46:55.105Z,19.57
2019-05-29T06:47:55.109Z,19.57
2019-05-29T06:49:00.177Z,19.65
2019-05-29T06:49:56.085Z,19.60
2019-05-29T06:50:57.429Z,19.55
2019-05-29T06:51:55.054Z,19.31
2019-05-29T06:52:55.045Z,19.38
2019-05-29T06:53:55.027Z,19.40
2019-05-29T06:54:55.014Z,19.38
2019-05-29T06:55:56.636Z,19.14
2019-05-29T06:56:54.993Z,18.99
2019-05-29T06:57:54.995Z,18.80
2019-05-29T06:58:54.969Z,18.17
2019-05-29T06:59:54.958Z,17.92
2019-05-29T07:00:54.948Z,17.88
2019-05-29T07:01:54.938Z,17.89
2019-05-29T07:02:54.926Z,17.76
2019-05-29T07:04:10.441Z,17.38
2019-05-29T07:04:55.905Z,17.15
2019-05-29T07:05:54.893Z,16.95
2019-05-29T07:06:54.881Z,16.77
2019-05-29T07:07:54.872Z,16.68
2019-05-29T07:08:54.874Z,16.49
2019-05-29T07:09:54.850Z,16.26
2019-05-29T07:10:54.837Z,16.11
2019-05-29T07:11:54.825Z,16.03
2019-05-29T07:12:54.814Z,15.97
2019-05-29T07:13:54.813Z,15.92
2019-05-29T07:14:54.793Z,16.06
2019-05-29T07:15:54.803Z,15.97
2019-05-29T07:16:56.272Z,15.82
2019-05-29T07:17:54.758Z,15.78
2019-05-29T07:19:24.023Z,15.48
2019-05-29T07:20:03.413Z,15.46
2019-05-29T07:20:55.726Z,15.39
2019-05-29T07:21:54.713Z,15.31
2019-05-29T07:22:54.704Z,15.38
2019-05-29T07:23:54.706Z,15.26
2019-05-29T07:24:54.678Z,15.21
2019-05-29T07:25:54.668Z,15.11
2019-05-29T07:26:54.659Z,15.28
2019-05-29T07:27:54.646Z,15.31
2019-05-29T07:29:06.810Z,15.41
2019-05-29T07:29:55.622Z,15.42
2019-05-29T07:31:01.599Z,15.51
2019-05-29T07:31:55.599Z,15.46
2019-05-29T07:32:58.485Z,15.35
2019-05-29T07:33:54.588Z,15.27
2019-05-29T07:35:03.217Z,15.26
2019-05-29T07:35:55.556Z,15.15
2019-05-29T07:36:54.545Z,15.11
2019-05-29T07:37:54.540Z,14.98
2019-05-29T07:39:03.032Z,14.81
2019-05-29T07:39:55.545Z,14.72
2019-05-29T07:40:54.529Z,14.74
2019-05-29T07:41:54.490Z,14.75
2019-05-29T07:42:56.650Z,14.91
2019-05-29T07:43:54.505Z,14.90
2019-05-29T07:44:54.488Z,14.84
2019-05-29T07:45:54.447Z,14.81
2019-05-29T07:46:54.453Z,14.87
2019-05-29T07:47:54.433Z,14.90
2019-05-29T07:48:54.449Z,14.94
2019-05-29T07:49:54.416Z,14.95
2019-05-29T07:51:06.292Z,14.91
2019-05-29T07:51:55.579Z,14.83
2019-05-29T07:52:54.508Z,14.80
2019-05-29T07:53:54.400Z,14.74
2019-05-29T07:54:54.347Z,14.81
2019-05-29T07:55:54.349Z,14.72
2019-05-29T07:56:54.323Z,14.65
2019-05-29T07:57:54.321Z,14.72
2019-05-29T07:59:02.455Z,14.80
2019-05-29T07:59:55.297Z,14.90
2019-05-29T08:01:11.811Z,14.95
2019-05-29T08:01:55.267Z,15.13
2019-05-29T08:02:54.260Z,15.08
2019-05-29T08:03:54.255Z,15.20
2019-05-29T08:04:54.273Z,15.27
2019-05-29T08:05:54.222Z,15.31
2019-05-29T08:06:54.714Z,15.27
2019-05-29T08:07:54.199Z,15.39
2019-05-29T08:08:54.192Z,15.46
2019-05-29T08:09:54.197Z,15.54
2019-05-29T08:10:54.178Z,15.52
2019-05-29T08:11:54.178Z,15.59
2019-05-29T08:12:55.679Z,15.59
2019-05-29T08:13:54.136Z,15.54
2019-05-29T08:14:54.132Z,15.61
2019-05-29T08:16:02.747Z,15.75
2019-05-29T08:16:55.102Z,15.96
2019-05-29T08:17:54.087Z,16.04
2019-05-29T08:18:54.083Z,16.31
2019-05-29T08:20:05.585Z,16.71
2019-05-29T08:20:55.058Z,16.90
2019-05-29T08:21:54.054Z,16.95
2019-05-29T08:22:54.106Z,16.96
2019-05-29T08:23:54.019Z,17.06
2019-05-29T08:24:54.026Z,17.22
2019-05-29T08:25:54.013Z,17.26
2019-05-29T08:26:54.006Z,17.35
2019-05-29T08:27:53.976Z,17.44
2019-05-29T08:28:53.986Z,17.35
2019-05-29T08:29:53.964Z,17.36
2019-05-29T08:30:56.327Z,17.33
2019-05-29T08:31:53.938Z,17.48
2019-05-29T08:32:53.953Z,17.47
2019-05-29T08:33:53.908Z,17.69
2019-05-29T08:34:53.909Z,17.76
2019-05-29T08:35:59.747Z,17.78
2019-05-29T08:37:04.790Z,17.84
2019-05-29T08:37:54.871Z,17.88
2019-05-29T08:38:53.854Z,17.78
2019-05-29T08:39:53.858Z,17.81
2019-05-29T08:40:53.871Z,17.82
2019-05-29T08:42:17.425Z,17.92
2019-05-29T08:42:54.809Z,18.13
2019-05-29T08:43:53.798Z,18.21
2019-05-29T08:44:53.788Z,18.17
2019-05-29T08:45:53.788Z,18.28
2019-05-29T08:47:09.052Z,18.36
2019-05-29T08:47:54.754Z,18.49
2019-05-29T08:48:53.744Z,18.73
2019-05-29T08:49:54.587Z,18.84
2019-05-29T08:50:53.726Z,19.15
2019-05-29T08:52:10.187Z,19.70
2019-05-29T08:52:54.715Z,19.93
2019-05-29T08:53:54.894Z,20.25
2019-05-29T08:54:53.678Z,20.64
2019-05-29T08:55:53.681Z,20.86
2019-05-29T08:56:53.652Z,21.16
2019-05-29T08:57:53.641Z,21.30
2019-05-29T08:58:53.668Z,21.63
2019-05-29T08:59:53.651Z,22.01
2019-05-29T09:00:55.307Z,22.07
2019-05-29T09:01:55.481Z,22.06
2019-05-29T09:02:53.589Z,22.20
2019-05-29T09:03:53.800Z,22.22
2019-05-29T09:04:54.889Z,22.47
2019-05-29T09:06:07.569Z,22.67
2019-05-29T09:06:54.541Z,22.71
2019-05-29T09:07:54.393Z,22.97
2019-05-29T09:08:54.905Z,23.05
2019-05-29T09:09:53.530Z,23.11
2019-05-29T09:10:54.236Z,23.39
2019-05-29T09:11:53.860Z,23.77
2019-05-29T09:13:03.945Z,23.90
2019-05-29T09:13:54.468Z,24.14
2019-05-29T09:14:53.459Z,24.23
2019-05-29T09:15:53.466Z,24.42
2019-05-29T09:16:53.446Z,24.38
2019-05-29T09:17:53.434Z,24.59
2019-05-29T09:18:53.430Z,24.67
2019-05-29T09:19:53.451Z,24.79
2019-05-29T09:21:02.957Z,24.85
2019-05-29T09:21:54.386Z,24.95
2019-05-29T09:22:53.376Z,25.07
2019-05-29T09:23:53.378Z,24.91
2019-05-29T09:24:53.349Z,24.64
2019-05-29T09:25:53.350Z,24.50
2019-05-29T09:26:53.330Z,24.35
2019-05-29T09:27:53.320Z,24.02
2019-05-29T09:28:53.311Z,24.12
2019-05-29T09:29:53.303Z,24.10
2019-05-29T09:30:53.296Z,24.38
2019-05-29T09:31:53.272Z,24.56
2019-05-29T09:32:53.480Z,24.22
2019-05-29T09:33:53.274Z,24.12
2019-05-29T09:34:53.245Z,23.94
2019-05-29T09:35:53.244Z,24.14
2019-05-29T09:36:55.715Z,24.29
2019-05-29T09:37:53.215Z,24.67
2019-05-29T09:38:53.653Z,24.64
2019-05-29T09:39:53.187Z,24.61
2019-05-29T09:40:53.250Z,24.54
2019-05-29T09:41:53.166Z,24.37
2019-05-29T09:42:53.161Z,24.14
2019-05-29T09:43:59.058Z,24.12
2019-05-29T09:44:54.160Z,24.16
2019-05-29T09:45:53.137Z,24.22
2019-05-29T09:46:53.121Z,24.39
2019-05-29T09:47:53.109Z,24.68
2019-05-29T09:48:53.094Z,24.76
2019-05-29T09:49:53.084Z,24.88
2019-05-29T09:50:53.079Z,24.97
2019-05-29T09:51:54.139Z,25.05
2019-05-29T09:52:54.967Z,24.67
2019-05-29T09:53:54.304Z,24.68
2019-05-29T09:54:54.600Z,24.88
2019-05-29T09:55:54.164Z,24.68
2019-05-29T09:56:54.955Z,24.80
2019-05-29T09:57:54.161Z,24.77
2019-05-29T09:58:54.311Z,24.79
2019-05-29T09:59:54.468Z,24.68
2019-05-29T10:01:15.453Z,24.91
2019-05-29T10:01:54.692Z,24.50
2019-05-29T10:02:53.990Z,24.52
2019-05-29T10:03:53.437Z,24.42
2019-05-29T10:04:54.515Z,24.71
2019-05-29T10:05:54.116Z,24.77
2019-05-29T10:06:53.124Z,25.01
2019-05-29T10:07:53.160Z,25.22
2019-05-29T10:08:54.180Z,25.30
2019-05-29T10:09:54.831Z,25.59
2019-05-29T10:11:03.877Z,25.74
2019-05-29T10:11:58.505Z,25.82
2019-05-29T10:12:55.348Z,25.75
2019-05-29T10:13:53.699Z,25.93
2019-05-29T10:14:53.703Z,25.94
2019-05-29T10:15:54.041Z,25.97
2019-05-29T10:16:56.031Z,26.11
2019-05-29T10:17:52.807Z,26.21
2019-05-29T10:18:52.788Z,26.11
2019-05-29T10:19:52.785Z,26.31
2019-05-29T10:20:52.771Z,26.39
2019-05-29T10:21:52.781Z,26.42
2019-05-29T10:22:52.751Z,26.29
2019-05-29T10:23:52.757Z,26.39
2019-05-29T10:24:52.728Z,26.40
2019-05-29T10:25:52.744Z,26.29
2019-05-29T10:26:52.710Z,26.44
2019-05-29T10:27:52.901Z,26.25
2019-05-29T10:29:06.855Z,26.06
2019-05-29T10:29:54.315Z,25.72
2019-05-29T10:30:52.934Z,25.68
2019-05-29T10:31:53.423Z,25.89
2019-05-29T10:32:53.039Z,26.12
2019-05-29T10:33:52.645Z,26.29
2019-05-29T10:34:52.765Z,26.59
2019-05-29T10:35:55.273Z,26.49
2019-05-29T10:36:54.589Z,26.04
2019-05-29T10:37:53.046Z,25.52
2019-05-29T10:38:52.754Z,24.97
2019-05-29T10:39:53.011Z,25.12
2019-05-29T10:41:05.617Z,24.97
2019-05-29T10:41:53.596Z,25.02
2019-05-29T10:42:53.543Z,24.92
2019-05-29T10:43:53.375Z,24.82
2019-05-29T10:44:53.266Z,24.68
2019-05-29T10:45:53.895Z,24.92
2019-05-29T10:46:54.709Z,25.07
2019-05-29T10:47:53.978Z,25.13
2019-05-29T10:48:54.700Z,24.95
2019-05-29T10:49:53.773Z,25.02
2019-05-29T10:50:53.885Z,25.35
2019-05-29T10:52:09.356Z,25.59
2019-05-29T10:52:54.257Z,25.87
2019-05-29T10:53:55.287Z,26.22
2019-05-29T10:54:54.443Z,26.36
2019-05-29T10:55:52.740Z,26.65
2019-05-29T10:56:52.965Z,26.79
2019-05-29T10:57:53.169Z,26.92
2019-05-29T10:58:58.142Z,26.96
2019-05-29T10:59:53.403Z,27.14
2019-05-29T11:00:53.403Z,27.17
2019-05-29T11:01:53.721Z,27.11
2019-05-29T11:02:54.571Z,27.28
2019-05-29T11:03:53.823Z,27.32
2019-05-29T11:04:56.362Z,27.32
2019-05-29T11:05:53.746Z,27.43
2019-05-29T11:06:52.684Z,27.58
2019-05-29T11:07:52.320Z,27.71
2019-05-29T11:08:52.420Z,27.85
2019-05-29T11:09:52.292Z,28.04
2019-05-29T11:10:52.281Z,28.22
2019-05-29T11:11:53.339Z,28.03
2019-05-29T11:12:52.677Z,28.04
2019-05-29T11:13:52.854Z,27.92
2019-05-29T11:14:52.889Z,28.07
2019-05-29T11:15:52.820Z,28.03
2019-05-29T11:16:53.388Z,27.91
2019-05-29T11:17:53.239Z,27.53
2019-05-29T11:18:53.385Z,26.62
2019-05-29T11:19:53.442Z,26.01
2019-05-29T11:20:53.364Z,25.91
2019-05-29T11:21:52.189Z,25.79
2019-05-29T11:22:52.166Z,25.87
2019-05-29T11:23:52.167Z,26.17
2019-05-29T11:24:52.405Z,26.29
2019-05-29T11:25:52.186Z,26.55
2019-05-29T11:26:52.551Z,26.72
2019-05-29T11:27:53.211Z,26.44
2019-05-29T11:28:52.364Z,26.20
2019-05-29T11:29:53.304Z,25.91
2019-05-29T11:30:53.588Z,25.74
2019-05-29T11:31:53.388Z,25.57
2019-05-29T11:32:53.066Z,25.46
2019-05-29T11:33:53.031Z,25.07
2019-05-29T11:34:53.672Z,24.63
2019-05-29T11:36:04.436Z,24.50
2019-05-29T11:36:54.152Z,24.64
2019-05-29T11:37:52.492Z,24.83
2019-05-29T11:38:52.592Z,24.50
2019-05-29T11:39:52.590Z,23.82
2019-05-29T11:41:03.721Z,23.92
2019-05-29T11:41:52.978Z,24.10
2019-05-29T11:42:52.774Z,24.24
2019-05-29T11:43:52.689Z,24.73
2019-05-29T11:44:53.317Z,24.59
2019-05-29T11:45:53.114Z,24.44
2019-05-29T11:46:52.195Z,24.69
2019-05-29T11:47:53.713Z,24.94
2019-05-29T11:48:53.105Z,25.49
2019-05-29T11:49:53.041Z,25.83
2019-05-29T11:50:52.147Z,26.15
2019-05-29T11:51:53.634Z,26.52
2019-05-29T11:52:52.313Z,26.87
2019-05-29T11:53:51.881Z,26.80
2019-05-29T11:54:55.955Z,26.83
2019-05-29T11:55:54.020Z,27.06
2019-05-29T11:56:53.616Z,27.31
2019-05-29T11:57:51.912Z,27.58
2019-05-29T11:58:52.746Z,27.61
2019-05-29T11:59:51.917Z,27.77
2019-05-29T12:00:52.859Z,27.76
2019-05-29T12:01:52.938Z,27.82
2019-05-29T12:02:53.597Z,27.89
2019-05-29T12:04:13.598Z,27.98
2019-05-29T12:04:53.133Z,28.14
2019-05-29T12:05:52.101Z,28.03
2019-05-29T12:06:51.736Z,27.82
2019-05-29T12:07:51.733Z,27.77
2019-05-29T12:08:51.715Z,26.52
2019-05-29T12:09:51.693Z,25.93
2019-05-29T12:10:51.673Z,26.17
2019-05-29T12:11:51.878Z,26.43
2019-05-29T12:12:51.653Z,26.68
2019-05-29T12:13:51.793Z,27.09
2019-05-29T12:15:00.735Z,27.19
2019-05-29T12:15:53.698Z,27.24
2019-05-29T12:16:51.786Z,27.29
2019-05-29T12:18:00.392Z,27.46
2019-05-29T12:18:53.635Z,27.73
2019-05-29T12:19:51.901Z,27.91
2019-05-29T12:20:52.076Z,28.04
2019-05-29T12:21:52.261Z,28.17
2019-05-29T12:23:13.255Z,27.85
2019-05-29T12:23:52.539Z,27.84
2019-05-29T12:24:52.536Z,27.89
2019-05-29T12:26:10.266Z,28.21
2019-05-29T12:26:52.517Z,27.99
2019-05-29T12:27:52.708Z,27.94
2019-05-29T12:28:53.473Z,27.48
2019-05-29T12:29:52.610Z,27.76
2019-05-29T12:30:53.260Z,27.89
2019-05-29T12:31:52.822Z,27.62
2019-05-29T12:32:52.636Z,27.53
2019-05-29T12:33:52.809Z,27.24
2019-05-29T12:34:54.138Z,27.10
2019-05-29T12:35:52.774Z,26.84
2019-05-29T12:36:51.393Z,26.89
2019-05-29T12:37:51.379Z,26.95
2019-05-29T12:38:51.366Z,26.94
2019-05-29T12:39:51.362Z,26.98
2019-05-29T12:40:51.345Z,27.02
2019-05-29T12:41:51.342Z,27.05
2019-05-29T12:42:51.416Z,27.14
2019-05-29T12:43:51.313Z,27.16
2019-05-29T12:44:51.652Z,27.26
2019-05-29T12:45:51.370Z,27.53
2019-05-29T12:46:51.277Z,27.35
2019-05-29T12:47:51.265Z,27.10
2019-05-29T12:48:51.259Z,27.21
2019-05-29T12:49:51.252Z,27.32
2019-05-29T12:50:51.233Z,27.62
2019-05-29T12:51:51.221Z,28.01
2019-05-29T12:52:51.223Z,27.85
2019-05-29T12:53:51.206Z,27.85
2019-05-29T12:54:51.199Z,27.59
2019-05-29T12:55:51.180Z,27.80
2019-05-29T12:56:51.195Z,27.94
2019-05-29T12:57:51.206Z,27.99
2019-05-29T12:58:51.147Z,28.21
2019-05-29T12:59:51.146Z,28.40
2019-05-29T13:00:51.207Z,28.54
2019-05-29T13:01:51.137Z,28.47
2019-05-29T13:02:51.106Z,28.75
2019-05-29T13:03:51.094Z,28.68
2019-05-29T13:05:06.899Z,28.56
2019-05-29T13:05:52.068Z,28.46
2019-05-29T13:06:51.059Z,28.01
2019-05-29T13:07:51.058Z,27.61
2019-05-29T13:08:51.042Z,27.67
2019-05-29T13:09:51.027Z,27.28
2019-05-29T13:10:51.025Z,27.35
2019-05-29T13:11:51.007Z,26.89
2019-05-29T13:12:51.675Z,27.02
2019-05-29T13:13:50.986Z,27.24
2019-05-29T13:14:50.975Z,27.29
2019-05-29T13:15:51.091Z,27.38
2019-05-29T13:16:50.967Z,27.31
2019-05-29T13:17:55.487Z,27.28
2019-05-29T13:18:51.931Z,27.38
2019-05-29T13:19:50.925Z,27.41
2019-05-29T13:20:50.917Z,27.32
2019-05-29T13:21:50.899Z,26.91
2019-05-29T13:22:50.891Z,26.35
2019-05-29T13:23:50.876Z,25.75
2019-05-29T13:24:52.827Z,25.52
2019-05-29T13:25:50.865Z,25.17
2019-05-29T13:26:50.845Z,25.05
2019-05-29T13:27:50.833Z,24.38
2019-05-29T13:28:50.862Z,23.82
2019-05-29T13:29:50.812Z,23.98
2019-05-29T13:30:50.812Z,24.12
2019-05-29T13:31:50.788Z,24.31
2019-05-29T13:32:50.810Z,24.37
2019-05-29T13:33:50.766Z,24.31
2019-05-29T13:34:50.758Z,24.37
2019-05-29T13:35:50.754Z,24.35
2019-05-29T13:36:50.781Z,24.17
2019-05-29T13:37:50.723Z,24.01
2019-05-29T13:38:50.713Z,23.95
2019-05-29T13:39:50.701Z,24.20
2019-05-29T13:40:50.700Z,24.13
2019-05-29T13:41:50.679Z,24.05
2019-05-29T13:42:50.669Z,24.14
2019-05-29T13:43:50.657Z,24.16
2019-05-29T13:44:50.772Z,24.37
2019-05-29T13:45:50.645Z,24.45
2019-05-29T13:46:50.626Z,24.50
2019-05-29T13:47:50.620Z,24.53
2019-05-29T13:48:50.611Z,24.52
2019-05-29T13:49:50.593Z,24.41
2019-05-29T13:50:50.587Z,24.26
2019-05-29T13:51:50.601Z,23.92
2019-05-29T13:52:50.561Z,23.64
2019-05-29T13:54:02.569Z,23.45
2019-05-29T13:54:51.535Z,23.60
2019-05-29T13:55:50.538Z,23.71
2019-05-29T13:56:50.670Z,23.83
2019-05-29T13:57:50.503Z,23.90
2019-05-29T13:58:50.493Z,23.95
2019-05-29T13:59:50.481Z,23.90
2019-05-29T14:00:50.470Z,23.97
2019-05-29T14:01:50.478Z,23.94
2019-05-29T14:02:50.449Z,24.00
2019-05-29T14:03:50.783Z,24.14
2019-05-29T14:04:50.440Z,24.14
2019-05-29T14:05:50.417Z,24.22
2019-05-29T14:06:52.953Z,24.32
2019-05-29T14:07:50.406Z,24.53
2019-05-29T14:08:50.382Z,24.75
2019-05-29T14:09:50.374Z,24.50
2019-05-29T14:10:50.358Z,24.38
2019-05-29T14:11:50.362Z,24.31
2019-05-29T14:12:50.338Z,24.38
2019-05-29T14:13:50.332Z,24.17
2019-05-29T14:14:50.315Z,24.19
2019-05-29T14:15:50.304Z,24.02
2019-05-29T14:16:50.315Z,24.07
2019-05-29T14:17:50.282Z,23.98
2019-05-29T14:18:50.336Z,23.95
2019-05-29T14:19:50.259Z,23.85
2019-05-29T14:20:50.251Z,23.70
2019-05-29T14:21:50.246Z,23.35
2019-05-29T14:22:50.226Z,23.12
2019-05-29T14:23:50.218Z,23.09
2019-05-29T14:24:50.201Z,23.11
2019-05-29T14:25:50.194Z,23.02
2019-05-29T14:26:50.188Z,22.92
2019-05-29T14:27:50.169Z,22.92
2019-05-29T14:28:50.158Z,22.94
2019-05-29T14:29:50.149Z,22.78
2019-05-29T14:30:50.137Z,22.67
2019-05-29T14:31:50.133Z,22.52
2019-05-29T14:32:50.129Z,22.27
2019-05-29T14:33:50.105Z,22.25
2019-05-29T14:34:50.092Z,22.38
2019-05-29T14:35:50.081Z,22.52
2019-05-29T14:36:50.080Z,22.52
2019-05-29T14:37:50.059Z,22.50
2019-05-29T14:38:50.048Z,22.44
2019-05-29T14:39:50.041Z,22.34
2019-05-29T14:40:50.026Z,22.49
2019-05-29T14:41:50.025Z,22.52
2019-05-29T14:42:50.003Z,22.37
2019-05-29T14:43:49.996Z,22.47
2019-05-29T14:44:49.981Z,22.37
2019-05-29T14:45:49.974Z,22.17
2019-05-29T14:46:49.970Z,22.10
2019-05-29T14:47:49.947Z,22.06
2019-05-29T14:48:49.939Z,22.09
2019-05-29T14:49:49.928Z,22.29
2019-05-29T14:50:49.916Z,22.39
2019-05-29T14:51:49.913Z,22.35
2019-05-29T14:52:49.892Z,22.23
2019-05-29T14:53:49.886Z,22.16
2019-05-29T14:54:49.869Z,22.23
2019-05-29T14:55:49.859Z,22.39
2019-05-29T14:56:49.867Z,22.39
2019-05-29T14:57:49.840Z,22.38
2019-05-29T14:58:49.830Z,22.37
2019-05-29T14:59:49.861Z,22.17
2019-05-29T15:00:49.804Z,22.31
2019-05-29T15:01:51.413Z,22.23
2019-05-29T15:02:49.782Z,22.38
2019-05-29T15:03:49.774Z,22.47
2019-05-29T15:04:49.761Z,22.50
2019-05-29T15:05:49.751Z,22.47
2019-05-29T15:06:49.753Z,22.41
2019-05-29T15:07:49.735Z,22.53
2019-05-29T15:08:49.716Z,22.50
2019-05-29T15:09:49.706Z,22.41
2019-05-29T15:10:49.692Z,22.32
2019-05-29T15:11:49.683Z,22.38
2019-05-29T15:12:49.702Z,22.31
2019-05-29T15:13:49.663Z,22.31
2019-05-29T15:14:49.652Z,22.22
2019-05-29T15:15:49.637Z,22.25
2019-05-29T15:16:49.626Z,22.29
2019-05-29T15:17:49.627Z,22.28
2019-05-29T15:18:49.606Z,22.38
2019-05-29T15:19:49.595Z,22.39
2019-05-29T15:20:49.592Z,22.43
2019-05-29T15:21:49.594Z,22.27
2019-05-29T15:22:49.584Z,22.22
2019-05-29T15:23:49.551Z,22.27
2019-05-29T15:25:01.369Z,22.34
2019-05-29T15:25:50.541Z,22.38
2019-05-29T15:26:49.517Z,22.34
2019-05-29T15:27:49.509Z,22.39
2019-05-29T15:28:49.494Z,22.43
2019-05-29T15:29:49.484Z,22.39
2019-05-29T15:30:49.489Z,22.44
2019-05-29T15:31:49.462Z,22.39
2019-05-29T15:32:49.828Z,22.44
2019-05-29T15:33:49.440Z,22.44
2019-05-29T15:34:49.435Z,22.25
2019-05-29T15:35:49.427Z,22.39
2019-05-29T15:36:49.428Z,22.39
2019-05-29T15:37:49.408Z,22.35
2019-05-29T15:38:49.400Z,22.47
2019-05-29T15:39:49.409Z,22.50
2019-05-29T15:40:49.366Z,22.44
2019-05-29T15:41:49.364Z,22.41
2019-05-29T15:42:49.341Z,22.41
2019-05-29T15:43:49.539Z,22.44
2019-05-29T15:44:49.346Z,22.29
2019-05-29T15:45:49.342Z,22.19
2019-05-29T15:46:49.305Z,21.98
2019-05-29T15:47:49.302Z,21.78
2019-05-29T15:48:49.275Z,21.57
2019-05-29T15:49:49.266Z,21.53
2019-05-29T15:50:49.265Z,21.61
2019-05-29T15:51:49.256Z,21.64
2019-05-29T15:52:49.232Z,21.61
2019-05-29T15:53:49.223Z,21.64
2019-05-29T15:54:49.311Z,21.64
2019-05-29T15:55:49.206Z,21.75
2019-05-29T15:56:49.193Z,21.74
2019-05-29T15:57:49.176Z,21.71
2019-05-29T15:58:49.171Z,21.63
2019-05-29T15:59:49.154Z,21.76
2019-05-29T16:00:49.144Z,21.85
2019-05-29T16:01:49.150Z,21.82
2019-05-29T16:02:49.922Z,21.85
2019-05-29T16:03:49.110Z,21.76
2019-05-29T16:04:49.097Z,21.72
2019-05-29T16:05:49.088Z,21.54
2019-05-29T16:06:49.103Z,21.57
2019-05-29T16:07:49.066Z,21.53
2019-05-29T16:08:49.054Z,21.64
2019-05-29T16:09:49.042Z,21.56
2019-05-29T16:10:49.030Z,21.59
2019-05-29T16:11:49.034Z,21.64
2019-05-29T16:12:49.017Z,21.60
2019-05-29T16:13:49.003Z,21.64
2019-05-29T16:14:48.997Z,21.61
2019-05-29T16:15:48.982Z,21.64
2019-05-29T16:16:48.975Z,21.79
2019-05-29T16:17:48.971Z,21.67
2019-05-29T16:18:48.949Z,21.67
2019-05-29T16:19:48.939Z,21.63
2019-05-29T16:20:48.923Z,21.75
2019-05-29T16:21:48.918Z,21.72
2019-05-29T16:22:48.910Z,21.64
2019-05-29T16:23:48.888Z,21.71
2019-05-29T16:24:48.879Z,21.53
2019-05-29T16:25:48.875Z,21.46
2019-05-29T16:26:48.858Z,21.45
2019-05-29T16:27:48.858Z,21.36
2019-05-29T16:28:48.835Z,21.16
2019-05-29T16:29:48.827Z,20.93
2019-05-29T16:30:48.816Z,20.79
2019-05-29T16:31:48.811Z,20.72
2019-05-29T16:32:48.806Z,20.61
2019-05-29T16:33:48.794Z,20.62
2019-05-29T16:34:48.771Z,20.58
2019-05-29T16:35:48.870Z,20.59
2019-05-29T16:36:48.745Z,20.69
2019-05-29T16:37:48.750Z,20.71
2019-05-29T16:38:48.724Z,20.83
2019-05-29T16:39:48.742Z,20.83
2019-05-29T16:40:48.706Z,20.93
2019-05-29T16:41:48.788Z,20.89
2019-05-29T16:42:48.785Z,20.83
2019-05-29T16:43:48.743Z,20.83
2019-05-29T16:44:48.715Z,20.90
2019-05-29T16:45:48.721Z,20.93
2019-05-29T16:46:48.703Z,20.89
2019-05-29T16:47:48.738Z,20.91
2019-05-29T16:48:48.682Z,20.95
2019-05-29T16:49:48.695Z,20.83
2019-05-29T16:50:48.695Z,20.87
2019-05-29T16:51:48.683Z,20.93
2019-05-29T16:52:48.749Z,20.99
2019-05-29T16:53:49.290Z,20.96
2019-05-29T16:54:48.725Z,20.96
2019-05-29T16:55:53.818Z,20.90
2019-05-29T16:56:49.521Z,20.91
2019-05-29T16:57:48.527Z,20.91
2019-05-29T16:58:48.500Z,20.95
2019-05-29T16:59:48.501Z,20.98
2019-05-29T17:00:48.491Z,20.98
2019-05-29T17:01:48.472Z,20.89
2019-05-29T17:02:48.476Z,20.98
2019-05-29T17:03:48.463Z,21.04
2019-05-29T17:04:48.444Z,20.96
2019-05-29T17:05:48.428Z,20.91
2019-05-29T17:06:48.414Z,20.91
2019-05-29T17:07:48.412Z,20.86
2019-05-29T17:08:48.391Z,20.87
2019-05-29T17:09:48.385Z,20.69
2019-05-29T17:10:48.370Z,20.66
2019-05-29T17:11:48.358Z,20.79
2019-05-29T17:12:48.494Z,20.76
2019-05-29T17:13:48.336Z,20.68
2019-05-29T17:14:48.329Z,20.68
2019-05-29T17:15:48.317Z,20.65
2019-05-29T17:16:48.302Z,20.56
2019-05-29T17:17:48.292Z,20.62
2019-05-29T17:18:48.502Z,20.69
2019-05-29T17:19:48.269Z,20.56
2019-05-29T17:20:48.256Z,20.43
2019-05-29T17:21:48.249Z,20.34
2019-05-29T17:22:48.232Z,20.42
2019-05-29T17:23:48.229Z,20.47
2019-05-29T17:24:48.211Z,20.35
2019-05-29T17:25:48.200Z,20.43
2019-05-29T17:26:48.196Z,20.41
2019-05-29T17:27:48.177Z,20.42
2019-05-29T17:28:48.175Z,20.39
2019-05-29T17:29:48.154Z,20.38
2019-05-29T17:30:48.145Z,20.35
2019-05-29T17:31:48.133Z,20.38
2019-05-29T17:32:48.122Z,20.28
2019-05-29T17:33:48.125Z,20.23
2019-05-29T17:34:48.100Z,20.16
2019-05-29T17:35:48.095Z,20.21
2019-05-29T17:36:48.202Z,20.20
2019-05-29T17:37:48.062Z,20.15
2019-05-29T17:38:48.085Z,20.15
2019-05-29T17:39:48.040Z,20.20
2019-05-29T17:40:48.039Z,20.16
2019-05-29T17:41:48.021Z,20.13
2019-05-29T17:42:48.011Z,20.21
2019-05-29T17:43:48.004Z,20.21
2019-05-29T17:44:47.982Z,20.21
2019-05-29T17:45:47.972Z,20.16
2019-05-29T17:46:47.962Z,20.16
2019-05-29T17:47:47.952Z,20.30
2019-05-29T17:48:47.962Z,20.21
2019-05-29T17:49:47.929Z,20.13
2019-05-29T17:50:47.925Z,20.20
2019-05-29T17:51:47.960Z,20.20
2019-05-29T17:52:47.900Z,20.15
2019-05-29T17:53:47.905Z,20.15
2019-05-29T17:54:47.873Z,20.15
2019-05-29T17:55:47.861Z,20.15
2019-05-29T17:56:47.851Z,20.20
2019-05-29T17:57:47.872Z,20.18
2019-05-29T17:58:47.841Z,20.20
2019-05-29T17:59:47.820Z,20.15
2019-05-29T18:00:47.810Z,20.08
2019-05-29T18:01:47.908Z,20.15
2019-05-29T18:02:52.297Z,20.16
2019-05-29T18:03:47.788Z,20.16
2019-05-29T18:04:47.810Z,20.20
2019-05-29T18:05:47.758Z,20.16
2019-05-29T18:06:47.746Z,20.10
2019-05-29T18:07:47.728Z,20.09
2019-05-29T18:08:47.716Z,20.13
2019-05-29T18:09:48.787Z,20.13
2019-05-29T18:10:47.727Z,20.25
2019-05-29T18:11:47.681Z,20.24
2019-05-29T18:12:47.671Z,20.12
2019-05-29T18:13:47.661Z,20.08
2019-05-29T18:14:47.659Z,20.06
2019-05-29T18:15:47.640Z,20.02
2019-05-29T18:16:47.691Z,20.02
2019-05-29T18:17:47.649Z,19.94
2019-05-29T18:18:47.642Z,19.93
2019-05-29T18:19:47.614Z,19.97
2019-05-29T18:20:47.580Z,19.94
2019-05-29T18:21:47.581Z,19.87
2019-05-29T18:22:47.558Z,19.93
2019-05-29T18:23:47.548Z,19.97
2019-05-29T18:24:47.543Z,19.97
2019-05-29T18:25:47.529Z,20.03
2019-05-29T18:26:47.683Z,20.03
2019-05-29T18:27:47.615Z,19.93
2019-05-29T18:28:47.532Z,19.93
2019-05-29T18:29:47.487Z,19.93
2019-05-29T18:30:47.480Z,19.88
2019-05-29T18:31:47.457Z,19.86
2019-05-29T18:32:47.456Z,19.87
2019-05-29T18:33:47.438Z,19.87
2019-05-29T18:34:51.210Z,19.83
2019-05-29T18:35:47.411Z,19.73
2019-05-29T18:36:47.399Z,19.76
2019-05-29T18:37:47.390Z,19.72